Andover, New Jersey
Current Conditions -  °F | °C
As of 1:04 PM on Monday 22 Dec 2014 (Local Time) from KFWN Reporting Station
Haze Haze  
Wind Chill: 29°   Ceiling: 700
Heat Index: 34°   Visibility: 6mi
Dew Point: 31°   Wind: 6mph
Humidity: 89%   Direction: 60°ENE
Pressure: 30.25"   Gusts: NA
Location:  40.99°N, 74.74°W
Report Text: KFWN 221804Z AUTO 06005KT 6SM BR OVC007 01/M01 A3025 RMK AO2 T00111006
Loading
Personal Weather Stations






























Interactive Weather Map New forecast layout! Learn more

10-Day Weather Forecast

Advertisements
Track Severe Weather on mobile